sensor_id;sensor_type;location;lat;lon;timestamp;P1;durP1;ratioP1;P2;durP2;ratioP2
70829;SDS011;58451;51.550;7.208;2022-11-11T00:01:05;4.50;;;1.10;;
70829;SDS011;58451;51.550;7.208;2022-11-11T00:03:00;7.30;;;1.40;;
70829;SDS011;58451;51.550;7.208;2022-11-11T00:04:51;6.30;;;1.10;;
70829;SDS011;58451;51.550;7.208;2022-11-11T00:06:41;6.60;;;1.50;;
70829;SDS011;58451;51.550;7.208;2022-11-11T00:08:31;8.10;;;1.80;;
70829;SDS011;58451;51.550;7.208;2022-11-11T00:10:22;5.90;;;1.30;;
70829;SDS011;58451;51.550;7.208;2022-11-11T00:12:13;5.40;;;1.10;;
70829;SDS011;58451;51.550;7.208;2022-11-11T00:14:07;5.30;;;1.20;;
70829;SDS011;58451;51.550;7.208;2022-11-11T00:16:08;5.90;;;1.40;;
70829;SDS011;58451;51.550;7.208;2022-11-11T00:18:04;5.00;;;1.40;;
70829;SDS011;58451;51.550;7.208;2022-11-11T00:20:14;3.80;;;1.20;;
70829;SDS011;58451;51.550;7.208;2022-11-11T00:22:24;5.40;;;1.30;;
70829;SDS011;58451;51.550;7.208;2022-11-11T00:24:33;6.00;;;1.50;;
70829;SDS011;58451;51.550;7.208;2022-11-11T00:26:42;6.50;;;1.50;;
70829;SDS011;58451;51.550;7.208;2022-11-11T00:28:32;5.50;;;1.30;;
70829;SDS011;58451;51.550;7.208;2022-11-11T00:30:22;6.90;;;1.00;;
70829;SDS011;58451;51.550;7.208;2022-11-11T00:32:13;7.60;;;1.80;;
70829;SDS011;58451;51.550;7.208;2022-11-11T00:34:14;6.50;;;1.20;;
70829;SDS011;58451;51.550;7.208;2022-11-11T00:36:07;7.40;;;1.20;;
70829;SDS011;58451;51.550;7.208;2022-11-11T00:38:10;8.50;;;1.90;;
70829;SDS011;58451;51.550;7.208;2022-11-11T00:40:21;8.50;;;1.60;;
70829;SDS011;58451;51.550;7.208;2022-11-11T00:42:12;6.70;;;1.40;;
70829;SDS011;58451;51.550;7.208;2022-11-11T00:44:03;5.80;;;1.40;;
70829;SDS011;58451;51.550;7.208;2022-11-11T00:45:54;8.30;;;2.00;;
70829;SDS011;58451;51.550;7.208;2022-11-11T00:48:04;6.00;;;1.50;;
70829;SDS011;58451;51.550;7.208;2022-11-11T00:52:50;7.90;;;1.70;;
70829;SDS011;58451;51.550;7.208;2022-11-11T00:54:41;6.30;;;1.30;;
70829;SDS011;58451;51.550;7.208;2022-11-11T00:56:32;8.00;;;1.50;;
70829;SDS011;58451;51.550;7.208;2022-11-11T00:58:25;8.80;;;1.70;;
70829;SDS011;58451;51.550;7.208;2022-11-11T01:00:17;5.20;;;1.40;;
70829;SDS011;58451;51.550;7.208;2022-11-11T01:02:08;8.60;;;1.90;;
70829;SDS011;58451;51.550;7.208;2022-11-11T01:04:04;5.80;;;1.80;;
70829;SDS011;58451;51.550;7.208;2022-11-11T01:05:59;6.10;;;1.20;;
70829;SDS011;58451;51.550;7.208;2022-11-11T01:07:50;6.40;;;1.70;;
70829;SDS011;58451;51.550;7.208;2022-11-11T01:09:45;6.30;;;1.50;;
70829;SDS011;58451;51.550;7.208;2022-11-11T01:11:35;7.10;;;1.50;;
70829;SDS011;58451;51.550;7.208;2022-11-11T01:13:31;7.10;;;1.70;;
70829;SDS011;58451;51.550;7.208;2022-11-11T01:15:25;4.90;;;1.40;;
70829;SDS011;58451;51.550;7.208;2022-11-11T01:17:15;5.40;;;1.70;;
70829;SDS011;58451;51.550;7.208;2022-11-11T01:19:05;8.70;;;2.00;;
70829;SDS011;58451;51.550;7.208;2022-11-11T01:21:02;7.80;;;2.00;;
70829;SDS011;58451;51.550;7.208;2022-11-11T01:22:54;9.50;;;1.80;;
70829;SDS011;58451;51.550;7.208;2022-11-11T01:24:44;7.20;;;1.60;;
70829;SDS011;58451;51.550;7.208;2022-11-11T01:26:36;7.40;;;1.60;;
70829;SDS011;58451;51.550;7.208;2022-11-11T01:28:26;5.50;;;1.40;;
70829;SDS011;58451;51.550;7.208;2022-11-11T01:30:17;6.60;;;1.90;;
70829;SDS011;58451;51.550;7.208;2022-11-11T01:32:08;6.80;;;1.80;;
70829;SDS011;58451;51.550;7.208;2022-11-11T01:33:59;6.80;;;1.70;;
70829;SDS011;58451;51.550;7.208;2022-11-11T01:35:49;7.80;;;1.90;;
70829;SDS011;58451;51.550;7.208;2022-11-11T01:37:39;6.90;;;1.70;;
70829;SDS011;58451;51.550;7.208;2022-11-11T01:39:30;6.10;;;1.40;;
70829;SDS011;58451;51.550;7.208;2022-11-11T01:41:26;6.60;;;1.40;;
70829;SDS011;58451;51.550;7.208;2022-11-11T01:43:23;7.80;;;2.00;;
70829;SDS011;58451;51.550;7.208;2022-11-11T01:47:49;7.50;;;1.80;;
70829;SDS011;58451;51.550;7.208;2022-11-11T01:50:18;5.90;;;1.40;;
70829;SDS011;58451;51.550;7.208;2022-11-11T01:54:34;5.40;;;1.40;;
70829;SDS011;58451;51.550;7.208;2022-11-11T01:56:29;6.70;;;1.50;;
70829;SDS011;58451;51.550;7.208;2022-11-11T01:58:20;5.50;;;1.30;;
70829;SDS011;58451;51.550;7.208;2022-11-11T02:00:15;7.50;;;2.50;;
70829;SDS011;58451;51.550;7.208;2022-11-11T02:02:18;6.20;;;1.30;;
70829;SDS011;58451;51.550;7.208;2022-11-11T02:04:13;5.10;;;1.60;;
70829;SDS011;58451;51.550;7.208;2022-11-11T02:06:22;4.60;;;1.40;;
70829;SDS011;58451;51.550;7.208;2022-11-11T02:08:20;6.80;;;1.40;;
70829;SDS011;58451;51.550;7.208;2022-11-11T02:10:24;6.10;;;1.70;;
70829;SDS011;58451;51.550;7.208;2022-11-11T02:12:17;5.80;;;1.60;;
70829;SDS011;58451;51.550;7.208;2022-11-11T02:14:26;7.10;;;1.60;;
70829;SDS011;58451;51.550;7.208;2022-11-11T02:16:26;5.30;;;1.20;;
70829;SDS011;58451;51.550;7.208;2022-11-11T02:18:17;4.30;;;1.20;;
70829;SDS011;58451;51.550;7.208;2022-11-11T02:20:09;7.20;;;1.70;;
70829;SDS011;58451;51.550;7.208;2022-11-11T02:22:10;7.90;;;1.40;;
70829;SDS011;58451;51.550;7.208;2022-11-11T02:24:13;5.60;;;1.30;;
70829;SDS011;58451;51.550;7.208;2022-11-11T02:26:10;6.40;;;1.50;;
70829;SDS011;58451;51.550;7.208;2022-11-11T02:28:05;5.80;;;1.10;;
70829;SDS011;58451;51.550;7.208;2022-11-11T02:29:59;7.80;;;1.40;;
70829;SDS011;58451;51.550;7.208;2022-11-11T02:31:51;7.20;;;1.60;;
70829;SDS011;58451;51.550;7.208;2022-11-11T02:33:41;6.00;;;1.20;;
70829;SDS011;58451;51.550;7.208;2022-11-11T02:35:37;6.80;;;1.60;;
70829;SDS011;58451;51.550;7.208;2022-11-11T02:37:50;5.10;;;1.50;;
70829;SDS011;58451;51.550;7.208;2022-11-11T02:39:45;6.90;;;1.70;;
70829;SDS011;58451;51.550;7.208;2022-11-11T02:41:55;8.70;;;1.60;;
70829;SDS011;58451;51.550;7.208;2022-11-11T02:43:46;6.60;;;1.30;;
70829;SDS011;58451;51.550;7.208;2022-11-11T02:45:38;4.80;;;1.20;;
70829;SDS011;58451;51.550;7.208;2022-11-11T02:47:31;5.60;;;1.40;;
70829;SDS011;58451;51.550;7.208;2022-11-11T02:49:21;6.50;;;1.40;;
70829;SDS011;58451;51.550;7.208;2022-11-11T02:51:12;6.70;;;1.50;;
70829;SDS011;58451;51.550;7.208;2022-11-11T02:53:03;8.30;;;1.60;;
70829;SDS011;58451;51.550;7.208;2022-11-11T02:54:54;7.20;;;1.50;;
70829;SDS011;58451;51.550;7.208;2022-11-11T02:56:48;7.30;;;1.70;;
70829;SDS011;58451;51.550;7.208;2022-11-11T02:58:57;7.90;;;1.70;;
70829;SDS011;58451;51.550;7.208;2022-11-11T03:00:48;4.10;;;1.10;;
70829;SDS011;58451;51.550;7.208;2022-11-11T03:02:39;6.10;;;1.20;;
70829;SDS011;58451;51.550;7.208;2022-11-11T03:04:30;7.10;;;1.70;;
70829;SDS011;58451;51.550;7.208;2022-11-11T03:06:23;6.80;;;1.60;;
70829;SDS011;58451;51.550;7.208;2022-11-11T03:08:14;5.50;;;1.50;;
70829;SDS011;58451;51.550;7.208;2022-11-11T03:10:06;5.60;;;1.40;;
70829;SDS011;58451;51.550;7.208;2022-11-11T03:11:58;4.20;;;1.20;;
70829;SDS011;58451;51.550;7.208;2022-11-11T03:13:49;8.40;;;1.40;;
70829;SDS011;58451;51.550;7.208;2022-11-11T03:15:41;5.20;;;1.40;;
70829;SDS011;58451;51.550;7.208;2022-11-11T03:17:32;6.10;;;1.40;;
70829;SDS011;58451;51.550;7.208;2022-11-11T03:19:30;5.50;;;1.10;;
70829;SDS011;58451;51.550;7.208;2022-11-11T03:21:30;7.00;;;1.40;;
70829;SDS011;58451;51.550;7.208;2022-11-11T03:23:41;8.10;;;1.20;;
70829;SDS011;58451;51.550;7.208;2022-11-11T03:25:33;7.20;;;1.20;;
70829;SDS011;58451;51.550;7.208;2022-11-11T03:27:27;5.80;;;1.40;;
70829;SDS011;58451;51.550;7.208;2022-11-11T03:29:18;5.70;;;1.40;;
70829;SDS011;58451;51.550;7.208;2022-11-11T03:31:09;3.80;;;1.00;;
70829;SDS011;58451;51.550;7.208;2022-11-11T03:33:00;8.90;;;1.50;;
70829;SDS011;58451;51.550;7.208;2022-11-11T03:34:53;3.80;;;1.10;;
70829;SDS011;58451;51.550;7.208;2022-11-11T03:36:44;6.60;;;1.30;;
70829;SDS011;58451;51.550;7.208;2022-11-11T03:38:55;6.10;;;1.10;;
70829;SDS011;58451;51.550;7.208;2022-11-11T03:40:46;4.50;;;1.10;;
70829;SDS011;58451;51.550;7.208;2022-11-11T03:42:38;7.40;;;1.20;;
70829;SDS011;58451;51.550;7.208;2022-11-11T03:44:34;5.00;;;1.20;;
70829;SDS011;58451;51.550;7.208;2022-11-11T03:46:25;8.20;;;1.20;;
70829;SDS011;58451;51.550;7.208;2022-11-11T03:48:17;5.90;;;1.10;;
70829;SDS011;58451;51.550;7.208;2022-11-11T03:50:08;6.10;;;1.40;;
70829;SDS011;58451;51.550;7.208;2022-11-11T03:51:58;4.80;;;1.20;;
70829;SDS011;58451;51.550;7.208;2022-11-11T03:53:49;6.40;;;1.30;;
70829;SDS011;58451;51.550;7.208;2022-11-11T03:55:40;6.00;;;1.30;;
70829;SDS011;58451;51.550;7.208;2022-11-11T03:57:30;5.40;;;1.20;;
70829;SDS011;58451;51.550;7.208;2022-11-11T03:59:23;4.50;;;0.90;;
70829;SDS011;58451;51.550;7.208;2022-11-11T04:01:13;4.00;;;1.10;;
70829;SDS011;58451;51.550;7.208;2022-11-11T04:03:26;4.70;;;0.90;;
70829;SDS011;58451;51.550;7.208;2022-11-11T04:05:36;6.20;;;1.20;;
70829;SDS011;58451;51.550;7.208;2022-11-11T04:07:46;4.50;;;1.00;;
70829;SDS011;58451;51.550;7.208;2022-11-11T04:09:57;4.50;;;0.90;;
70829;SDS011;58451;51.550;7.208;2022-11-11T04:12:07;4.80;;;1.20;;
70829;SDS011;58451;51.550;7.208;2022-11-11T04:14:00;6.70;;;1.20;;
70829;SDS011;58451;51.550;7.208;2022-11-11T04:16:13;6.00;;;1.20;;
70829;SDS011;58451;51.550;7.208;2022-11-11T04:18:05;6.40;;;1.30;;
70829;SDS011;58451;51.550;7.208;2022-11-11T04:19:56;5.10;;;1.20;;
70829;SDS011;58451;51.550;7.208;2022-11-11T04:22:05;7.20;;;1.40;;
70829;SDS011;58451;51.550;7.208;2022-11-11T04:23:56;4.20;;;1.20;;
70829;SDS011;58451;51.550;7.208;2022-11-11T04:25:48;6.50;;;1.30;;
70829;SDS011;58451;51.550;7.208;2022-11-11T04:27:38;7.00;;;1.30;;
70829;SDS011;58451;51.550;7.208;2022-11-11T04:29:30;5.50;;;1.60;;
70829;SDS011;58451;51.550;7.208;2022-11-11T04:31:20;6.30;;;1.70;;
70829;SDS011;58451;51.550;7.208;2022-11-11T04:33:12;5.60;;;1.50;;
70829;SDS011;58451;51.550;7.208;2022-11-11T04:35:09;7.30;;;1.50;;
70829;SDS011;58451;51.550;7.208;2022-11-11T04:37:03;6.30;;;1.30;;
70829;SDS011;58451;51.550;7.208;2022-11-11T04:38:54;6.30;;;1.60;;
70829;SDS011;58451;51.550;7.208;2022-11-11T04:41:05;6.50;;;1.30;;
70829;SDS011;58451;51.550;7.208;2022-11-11T04:42:58;7.40;;;1.70;;
70829;SDS011;58451;51.550;7.208;2022-11-11T04:44:50;5.50;;;1.00;;
70829;SDS011;58451;51.550;7.208;2022-11-11T04:47:00;5.80;;;1.50;;
70829;SDS011;58451;51.550;7.208;2022-11-11T04:48:51;6.30;;;1.50;;
70829;SDS011;58451;51.550;7.208;2022-11-11T04:50:43;6.50;;;1.50;;
70829;SDS011;58451;51.550;7.208;2022-11-11T04:52:37;7.60;;;1.60;;
70829;SDS011;58451;51.550;7.208;2022-11-11T04:54:27;2.60;;;0.60;;
70829;SDS011;58451;51.550;7.208;2022-11-11T04:56:19;6.20;;;1.20;;
70829;SDS011;58451;51.550;7.208;2022-11-11T04:58:32;5.20;;;1.20;;
70829;SDS011;58451;51.550;7.208;2022-11-11T05:00:26;4.60;;;1.20;;
70829;SDS011;58451;51.550;7.208;2022-11-11T05:02:31;7.70;;;1.40;;
70829;SDS011;58451;51.550;7.208;2022-11-11T05:04:41;5.20;;;1.20;;
70829;SDS011;58451;51.550;7.208;2022-11-11T05:06:33;4.80;;;1.10;;
70829;SDS011;58451;51.550;7.208;2022-11-11T05:08:49;4.40;;;1.30;;
70829;SDS011;58451;51.550;7.208;2022-11-11T05:10:46;6.60;;;1.70;;
70829;SDS011;58451;51.550;7.208;2022-11-11T05:12:36;6.90;;;1.50;;
70829;SDS011;58451;51.550;7.208;2022-11-11T05:14:28;5.20;;;1.50;;
70829;SDS011;58451;51.550;7.208;2022-11-11T05:16:57;4.50;;;1.10;;
70829;SDS011;58451;51.550;7.208;2022-11-11T05:19:10;7.40;;;1.70;;
70829;SDS011;58451;51.550;7.208;2022-11-11T05:21:24;6.60;;;1.50;;
70829;SDS011;58451;51.550;7.208;2022-11-11T05:23:18;7.00;;;1.50;;
70829;SDS011;58451;51.550;7.208;2022-11-11T05:25:12;5.60;;;1.60;;
70829;SDS011;58451;51.550;7.208;2022-11-11T05:27:17;6.50;;;2.00;;
70829;SDS011;58451;51.550;7.208;2022-11-11T05:29:07;6.70;;;1.80;;
70829;SDS011;58451;51.550;7.208;2022-11-11T05:30:58;6.10;;;1.80;;
70829;SDS011;58451;51.550;7.208;2022-11-11T05:32:49;8.60;;;2.20;;
70829;SDS011;58451;51.550;7.208;2022-11-11T05:34:40;8.60;;;2.20;;
70829;SDS011;58451;51.550;7.208;2022-11-11T05:36:31;6.50;;;1.60;;
70829;SDS011;58451;51.550;7.208;2022-11-11T05:38:25;11.50;;;3.20;;
70829;SDS011;58451;51.550;7.208;2022-11-11T05:40:16;5.70;;;1.10;;
70829;SDS011;58451;51.550;7.208;2022-11-11T05:42:07;6.80;;;1.60;;
70829;SDS011;58451;51.550;7.208;2022-11-11T05:43:58;8.30;;;1.90;;
70829;SDS011;58451;51.550;7.208;2022-11-11T05:45:49;6.60;;;1.50;;
70829;SDS011;58451;51.550;7.208;2022-11-11T05:47:39;5.80;;;1.60;;
70829;SDS011;58451;51.550;7.208;2022-11-11T05:49:30;5.80;;;1.50;;
70829;SDS011;58451;51.550;7.208;2022-11-11T05:51:22;7.80;;;1.60;;
70829;SDS011;58451;51.550;7.208;2022-11-11T05:53:24;5.50;;;1.50;;
70829;SDS011;58451;51.550;7.208;2022-11-11T05:55:17;5.60;;;1.30;;
70829;SDS011;58451;51.550;7.208;2022-11-11T05:57:09;3.90;;;1.20;;
70829;SDS011;58451;51.550;7.208;2022-11-11T05:59:00;5.10;;;1.20;;
70829;SDS011;58451;51.550;7.208;2022-11-11T06:00:51;6.00;;;1.80;;
70829;SDS011;58451;51.550;7.208;2022-11-11T06:02:41;7.50;;;1.70;;
70829;SDS011;58451;51.550;7.208;2022-11-11T06:04:32;10.00;;;1.30;;
70829;SDS011;58451;51.550;7.208;2022-11-11T06:06:26;6.10;;;1.00;;
70829;SDS011;58451;51.550;7.208;2022-11-11T06:08:17;8.70;;;2.50;;
70829;SDS011;58451;51.550;7.208;2022-11-11T06:10:08;7.80;;;1.80;;
70829;SDS011;58451;51.550;7.208;2022-11-11T06:12:18;7.70;;;1.70;;
70829;SDS011;58451;51.550;7.208;2022-11-11T06:14:08;5.70;;;1.40;;
70829;SDS011;58451;51.550;7.208;2022-11-11T06:15:59;4.00;;;1.10;;
70829;SDS011;58451;51.550;7.208;2022-11-11T06:17:52;4.60;;;1.30;;
70829;SDS011;58451;51.550;7.208;2022-11-11T06:19:43;5.00;;;1.00;;
70829;SDS011;58451;51.550;7.208;2022-11-11T06:21:36;6.00;;;1.50;;
70829;SDS011;58451;51.550;7.208;2022-11-11T06:23:46;4.60;;;1.30;;
70829;SDS011;58451;51.550;7.208;2022-11-11T06:25:39;5.00;;;1.50;;
70829;SDS011;58451;51.550;7.208;2022-11-11T06:27:50;6.10;;;1.10;;
70829;SDS011;58451;51.550;7.208;2022-11-11T06:29:41;6.00;;;1.40;;
70829;SDS011;58451;51.550;7.208;2022-11-11T06:31:31;5.30;;;1.40;;
70829;SDS011;58451;51.550;7.208;2022-11-11T06:33:23;6.10;;;1.50;;
70829;SDS011;58451;51.550;7.208;2022-11-11T06:35:16;6.20;;;1.20;;
70829;SDS011;58451;51.550;7.208;2022-11-11T06:37:07;6.10;;;1.20;;
70829;SDS011;58451;51.550;7.208;2022-11-11T06:38:57;5.90;;;1.70;;
70829;SDS011;58451;51.550;7.208;2022-11-11T06:40:48;5.20;;;1.30;;
70829;SDS011;58451;51.550;7.208;2022-11-11T06:42:39;5.60;;;1.50;;
70829;SDS011;58451;51.550;7.208;2022-11-11T06:44:31;5.40;;;1.00;;
70829;SDS011;58451;51.550;7.208;2022-11-11T06:46:23;6.90;;;1.50;;
70829;SDS011;58451;51.550;7.208;2022-11-11T06:48:17;6.20;;;1.10;;
70829;SDS011;58451;51.550;7.208;2022-11-11T06:50:08;4.40;;;1.30;;
70829;SDS011;58451;51.550;7.208;2022-11-11T06:51:59;4.90;;;1.00;;
70829;SDS011;58451;51.550;7.208;2022-11-11T06:53:50;4.30;;;1.10;;
70829;SDS011;58451;51.550;7.208;2022-11-11T06:55:42;3.20;;;0.80;;
70829;SDS011;58451;51.550;7.208;2022-11-11T06:57:35;6.50;;;1.70;;
70829;SDS011;58451;51.550;7.208;2022-11-11T06:59:35;6.50;;;1.70;;
70829;SDS011;58451;51.550;7.208;2022-11-11T07:01:36;6.60;;;1.40;;
70829;SDS011;58451;51.550;7.208;2022-11-11T07:03:31;7.10;;;1.40;;
70829;SDS011;58451;51.550;7.208;2022-11-11T07:05:21;5.90;;;1.10;;
70829;SDS011;58451;51.550;7.208;2022-11-11T07:07:12;5.40;;;1.20;;
70829;SDS011;58451;51.550;7.208;2022-11-11T07:09:05;4.30;;;1.20;;
70829;SDS011;58451;51.550;7.208;2022-11-11T07:10:57;5.20;;;1.20;;
70829;SDS011;58451;51.550;7.208;2022-11-11T07:12:51;4.80;;;1.10;;
70829;SDS011;58451;51.550;7.208;2022-11-11T07:14:42;4.50;;;1.20;;
70829;SDS011;58451;51.550;7.208;2022-11-11T07:16:35;5.10;;;1.20;;
70829;SDS011;58451;51.550;7.208;2022-11-11T07:18:26;5.00;;;1.40;;
70829;SDS011;58451;51.550;7.208;2022-11-11T07:20:17;6.50;;;1.40;;
70829;SDS011;58451;51.550;7.208;2022-11-11T07:22:08;5.00;;;1.20;;
70829;SDS011;58451;51.550;7.208;2022-11-11T07:24:11;4.80;;;1.50;;
70829;SDS011;58451;51.550;7.208;2022-11-11T07:26:02;5.10;;;1.10;;
70829;SDS011;58451;51.550;7.208;2022-11-11T07:27:53;3.80;;;1.00;;
70829;SDS011;58451;51.550;7.208;2022-11-11T07:29:50;5.50;;;1.40;;
70829;SDS011;58451;51.550;7.208;2022-11-11T07:31:40;5.30;;;0.90;;
70829;SDS011;58451;51.550;7.208;2022-11-11T07:33:31;4.40;;;1.00;;
70829;SDS011;58451;51.550;7.208;2022-11-11T07:35:23;7.50;;;1.20;;
70829;SDS011;58451;51.550;7.208;2022-11-11T07:37:13;5.40;;;1.30;;
70829;SDS011;58451;51.550;7.208;2022-11-11T07:39:05;4.90;;;1.00;;
70829;SDS011;58451;51.550;7.208;2022-11-11T07:40:58;5.60;;;1.20;;
70829;SDS011;58451;51.550;7.208;2022-11-11T07:42:49;6.80;;;1.20;;
70829;SDS011;58451;51.550;7.208;2022-11-11T07:44:39;7.10;;;1.40;;
70829;SDS011;58451;51.550;7.208;2022-11-11T07:46:38;5.90;;;1.00;;
70829;SDS011;58451;51.550;7.208;2022-11-11T07:48:30;3.00;;;0.60;;
70829;SDS011;58451;51.550;7.208;2022-11-11T07:50:21;5.70;;;1.10;;
70829;SDS011;58451;51.550;7.208;2022-11-11T07:52:12;6.10;;;1.20;;
70829;SDS011;58451;51.550;7.208;2022-11-11T07:54:06;5.10;;;0.80;;
70829;SDS011;58451;51.550;7.208;2022-11-11T07:55:57;6.30;;;1.30;;
70829;SDS011;58451;51.550;7.208;2022-11-11T07:57:51;5.20;;;1.10;;
70829;SDS011;58451;51.550;7.208;2022-11-11T07:59:44;3.20;;;1.00;;
70829;SDS011;58451;51.550;7.208;2022-11-11T08:01:34;5.50;;;1.10;;
70829;SDS011;58451;51.550;7.208;2022-11-11T08:03:26;7.60;;;1.40;;
70829;SDS011;58451;51.550;7.208;2022-11-11T08:05:20;5.10;;;1.40;;
70829;SDS011;58451;51.550;7.208;2022-11-11T08:07:12;5.40;;;1.10;;
70829;SDS011;58451;51.550;7.208;2022-11-11T08:09:09;5.00;;;0.90;;
70829;SDS011;58451;51.550;7.208;2022-11-11T08:10:59;5.50;;;1.30;;
70829;SDS011;58451;51.550;7.208;2022-11-11T08:12:53;5.10;;;0.90;;
70829;SDS011;58451;51.550;7.208;2022-11-11T08:15:07;3.30;;;0.80;;
70829;SDS011;58451;51.550;7.208;2022-11-11T08:17:13;4.70;;;1.00;;
70829;SDS011;58451;51.550;7.208;2022-11-11T08:19:05;5.30;;;1.00;;
70829;SDS011;58451;51.550;7.208;2022-11-11T08:20:58;4.90;;;0.90;;
70829;SDS011;58451;51.550;7.208;2022-11-11T08:22:49;5.20;;;1.00;;
70829;SDS011;58451;51.550;7.208;2022-11-11T08:25:10;3.70;;;0.80;;
70829;SDS011;58451;51.550;7.208;2022-11-11T08:27:04;4.90;;;0.70;;
70829;SDS011;58451;51.550;7.208;2022-11-11T08:28:56;3.90;;;1.00;;
70829;SDS011;58451;51.550;7.208;2022-11-11T08:30:47;4.70;;;0.90;;
70829;SDS011;58451;51.550;7.208;2022-11-11T08:32:38;6.30;;;0.90;;
70829;SDS011;58451;51.550;7.208;2022-11-11T08:34:58;5.40;;;1.00;;
70829;SDS011;58451;51.550;7.208;2022-11-11T08:36:49;7.60;;;0.90;;
70829;SDS011;58451;51.550;7.208;2022-11-11T08:38:41;5.50;;;1.00;;
70829;SDS011;58451;51.550;7.208;2022-11-11T08:40:34;5.80;;;0.90;;
70829;SDS011;58451;51.550;7.208;2022-11-11T08:42:24;4.40;;;0.80;;
70829;SDS011;58451;51.550;7.208;2022-11-11T08:44:17;3.10;;;0.90;;
70829;SDS011;58451;51.550;7.208;2022-11-11T08:46:08;4.70;;;0.80;;
70829;SDS011;58451;51.550;7.208;2022-11-11T08:48:01;3.00;;;0.40;;
70829;SDS011;58451;51.550;7.208;2022-11-11T08:49:52;4.40;;;0.90;;
70829;SDS011;58451;51.550;7.208;2022-11-11T08:51:43;2.80;;;0.80;;
70829;SDS011;58451;51.550;7.208;2022-11-11T08:53:36;4.20;;;0.90;;
70829;SDS011;58451;51.550;7.208;2022-11-11T08:55:27;2.60;;;0.60;;
70829;SDS011;58451;51.550;7.208;2022-11-11T08:57:18;2.60;;;0.60;;
70829;SDS011;58451;51.550;7.208;2022-11-11T08:59:10;3.90;;;0.70;;
70829;SDS011;58451;51.550;7.208;2022-11-11T09:01:01;5.10;;;0.90;;
70829;SDS011;58451;51.550;7.208;2022-11-11T09:03:06;5.30;;;1.10;;
70829;SDS011;58451;51.550;7.208;2022-11-11T09:05:17;4.00;;;0.70;;
70829;SDS011;58451;51.550;7.208;2022-11-11T09:07:10;3.90;;;0.80;;
70829;SDS011;58451;51.550;7.208;2022-11-11T09:09:02;4.30;;;0.80;;
70829;SDS011;58451;51.550;7.208;2022-11-11T09:10:52;5.40;;;0.80;;
70829;SDS011;58451;51.550;7.208;2022-11-11T09:12:43;2.40;;;0.80;;
70829;SDS011;58451;51.550;7.208;2022-11-11T09:14:48;2.10;;;0.70;;
70829;SDS011;58451;51.550;7.208;2022-11-11T09:16:42;3.10;;;0.70;;
70829;SDS011;58451;51.550;7.208;2022-11-11T09:18:32;2.90;;;0.80;;
70829;SDS011;58451;51.550;7.208;2022-11-11T09:20:24;3.00;;;0.90;;
70829;SDS011;58451;51.550;7.208;2022-11-11T09:22:17;5.50;;;0.80;;
70829;SDS011;58451;51.550;7.208;2022-11-11T09:24:08;4.30;;;0.90;;
70829;SDS011;58451;51.550;7.208;2022-11-11T09:26:01;5.40;;;0.80;;
70829;SDS011;58451;51.550;7.208;2022-11-11T09:28:00;3.70;;;0.70;;
70829;SDS011;58451;51.550;7.208;2022-11-11T09:29:53;5.90;;;1.00;;
70829;SDS011;58451;51.550;7.208;2022-11-11T09:31:44;4.50;;;1.00;;
70829;SDS011;58451;51.550;7.208;2022-11-11T09:33:37;3.60;;;0.70;;
70829;SDS011;58451;51.550;7.208;2022-11-11T09:35:30;4.40;;;0.70;;
70829;SDS011;58451;51.550;7.208;2022-11-11T09:37:23;3.50;;;0.80;;
70829;SDS011;58451;51.550;7.208;2022-11-11T09:39:14;2.70;;;0.60;;
70829;SDS011;58451;51.550;7.208;2022-11-11T09:41:27;3.70;;;0.80;;
70829;SDS011;58451;51.550;7.208;2022-11-11T09:43:54;3.30;;;0.60;;
70829;SDS011;58451;51.550;7.208;2022-11-11T09:45:57;6.90;;;1.20;;
70829;SDS011;58451;51.550;7.208;2022-11-11T09:50:34;4.20;;;0.90;;
70829;SDS011;58451;51.550;7.208;2022-11-11T09:55:17;3.50;;;0.70;;
70829;SDS011;58451;51.550;7.208;2022-11-11T09:57:41;4.90;;;1.00;;
70829;SDS011;58451;51.550;7.208;2022-11-11T09:59:43;3.00;;;0.90;;
70829;SDS011;58451;51.550;7.208;2022-11-11T10:01:50;5.10;;;0.90;;
70829;SDS011;58451;51.550;7.208;2022-11-11T10:03:50;4.70;;;0.80;;
70829;SDS011;58451;51.550;7.208;2022-11-11T10:06:00;5.20;;;0.90;;
70829;SDS011;58451;51.550;7.208;2022-11-11T10:08:05;3.50;;;0.90;;
70829;SDS011;58451;51.550;7.208;2022-11-11T10:12:30;4.00;;;0.70;;
70829;SDS011;58451;51.550;7.208;2022-11-11T10:14:36;2.80;;;0.60;;
70829;SDS011;58451;51.550;7.208;2022-11-11T10:16:39;2.40;;;0.60;;
70829;SDS011;58451;51.550;7.208;2022-11-11T10:19:12;2.60;;;0.80;;
70829;SDS011;58451;51.550;7.208;2022-11-11T10:21:35;5.50;;;0.90;;
70829;SDS011;58451;51.550;7.208;2022-11-11T10:24:09;5.70;;;0.80;;
70829;SDS011;58451;51.550;7.208;2022-11-11T10:26:20;4.70;;;0.90;;
70829;SDS011;58451;51.550;7.208;2022-11-11T10:28:27;1.90;;;0.50;;
70829;SDS011;58451;51.550;7.208;2022-11-11T10:30:28;3.00;;;0.50;;
70829;SDS011;58451;51.550;7.208;2022-11-11T10:32:27;3.80;;;0.70;;
70829;SDS011;58451;51.550;7.208;2022-11-11T10:34:21;4.40;;;0.50;;
70829;SDS011;58451;51.550;7.208;2022-11-11T10:36:16;2.60;;;0.50;;
70829;SDS011;58451;51.550;7.208;2022-11-11T10:40:52;1.60;;;0.40;;
70829;SDS011;58451;51.550;7.208;2022-11-11T10:42:32;4.00;;;0.70;;
70829;SDS011;58451;51.550;7.208;2022-11-11T10:44:27;2.80;;;0.60;;
70829;SDS011;58451;51.550;7.208;2022-11-11T10:46:26;2.90;;;0.60;;
70829;SDS011;58451;51.550;7.208;2022-11-11T10:50:48;1.60;;;0.40;;
70829;SDS011;58451;51.550;7.208;2022-11-11T10:52:52;4.30;;;0.80;;
70829;SDS011;58451;51.550;7.208;2022-11-11T10:54:59;3.10;;;0.60;;
70829;SDS011;58451;51.550;7.208;2022-11-11T10:57:18;4.10;;;0.70;;
70829;SDS011;58451;51.550;7.208;2022-11-11T10:59:31;3.90;;;0.80;;
70829;SDS011;58451;51.550;7.208;2022-11-11T11:01:56;6.60;;;0.90;;
70829;SDS011;58451;51.550;7.208;2022-11-11T11:04:08;5.20;;;0.70;;
70829;SDS011;58451;51.550;7.208;2022-11-11T11:06:17;2.80;;;0.60;;
70829;SDS011;58451;51.550;7.208;2022-11-11T11:08:28;3.00;;;0.50;;
70829;SDS011;58451;51.550;7.208;2022-11-11T11:10:50;3.60;;;0.50;;
70829;SDS011;58451;51.550;7.208;2022-11-11T11:12:58;3.60;;;0.80;;
70829;SDS011;58451;51.550;7.208;2022-11-11T11:15:01;3.00;;;0.50;;
70829;SDS011;58451;51.550;7.208;2022-11-11T11:17:00;3.30;;;0.60;;
70829;SDS011;58451;51.550;7.208;2022-11-11T11:19:22;4.00;;;0.60;;
70829;SDS011;58451;51.550;7.208;2022-11-11T11:21:12;3.40;;;0.50;;
70829;SDS011;58451;51.550;7.208;2022-11-11T11:23:03;2.30;;;0.70;;
70829;SDS011;58451;51.550;7.208;2022-11-11T11:25:09;3.80;;;0.70;;
70829;SDS011;58451;51.550;7.208;2022-11-11T11:27:04;2.70;;;0.60;;
70829;SDS011;58451;51.550;7.208;2022-11-11T11:28:59;3.30;;;0.50;;
70829;SDS011;58451;51.550;7.208;2022-11-11T11:31:02;3.60;;;0.50;;
70829;SDS011;58451;51.550;7.208;2022-11-11T11:33:21;2.20;;;0.50;;
70829;SDS011;58451;51.550;7.208;2022-11-11T11:37:47;2.40;;;0.60;;
70829;SDS011;58451;51.550;7.208;2022-11-11T11:39:41;2.30;;;0.50;;
70829;SDS011;58451;51.550;7.208;2022-11-11T11:41:44;1.70;;;0.50;;
70829;SDS011;58451;51.550;7.208;2022-11-11T11:43:41;2.60;;;0.50;;
70829;SDS011;58451;51.550;7.208;2022-11-11T11:45:32;3.80;;;0.70;;
70829;SDS011;58451;51.550;7.208;2022-11-11T11:47:45;3.80;;;0.80;;
70829;SDS011;58451;51.550;7.208;2022-11-11T11:50:16;3.10;;;0.70;;
70829;SDS011;58451;51.550;7.208;2022-11-11T11:52:21;3.30;;;0.50;;
70829;SDS011;58451;51.550;7.208;2022-11-11T11:54:55;3.10;;;0.60;;
70829;SDS011;58451;51.550;7.208;2022-11-11T11:57:01;3.80;;;0.60;;
70829;SDS011;58451;51.550;7.208;2022-11-11T12:06:10;2.40;;;0.50;;
70829;SDS011;58451;51.550;7.208;2022-11-11T12:16:29;2.70;;;0.40;;
70829;SDS011;58451;51.550;7.208;2022-11-11T12:18:55;3.50;;;0.50;;
70829;SDS011;58451;51.550;7.208;2022-11-11T12:21:15;3.00;;;0.70;;
70829;SDS011;58451;51.550;7.208;2022-11-11T12:30:22;3.20;;;0.70;;
70829;SDS011;58451;51.550;7.208;2022-11-11T12:32:27;2.10;;;0.60;;